Time;durP1;ratioP1;P1;durP2;ratioP2;P2;SDS_P1;SDS_P2;PMS_P1;PMS_P2;Temp;Humidity;BMP_temperature;BMP_pressure;BME280_temperature;BME280_humidity;BME280_pressure;Samples;Min_cycle;Max_cycle;Signal;HPM_P1;HPM_P2
2022/11/14 00:00:39;;;;;;;14.80;11.67;;;2.70;99.90;;;;;;5053639;28;20204;-71
2022/11/14 00:03:06;;;;;;;14.53;12.40;;;2.70;99.90;;;;;;5052388;28;20252;-70
2022/11/14 00:05:37;;;;;;;13.30;11.83;;;2.70;99.90;;;;;;5053624;28;20175;-70
2022/11/14 00:08:02;;;;;;;15.57;12.33;;;2.80;99.90;;;;;;5052489;28;20213;-70
2022/11/14 00:10:28;;;;;;;14.93;12.77;;;2.70;99.90;;;;;;5054159;28;20620;-71
2022/11/14 00:12:54;;;;;;;16.87;12.87;;;2.70;99.90;;;;;;5052314;28;20175;-70
2022/11/14 00:15:20;;;;;;;13.53;11.60;;;2.80;99.90;;;;;;5052356;28;20182;-70
2022/11/14 00:17:45;;;;;;;16.67;12.23;;;2.80;99.90;;;;;;5053311;28;20192;-70
2022/11/14 00:20:12;;;;;;;12.73;11.43;;;2.80;99.90;;;;;;5053629;28;20289;-70
2022/11/14 00:22:37;;;;;;;14.20;11.60;;;2.70;99.90;;;;;;5053773;28;20181;-70
2022/11/14 00:25:04;;;;;;;15.23;11.70;;;2.70;99.90;;;;;;5053528;28;20541;-70
2022/11/14 00:27:29;;;;;;;15.57;12.17;;;2.50;99.90;;;;;;5052217;28;20824;-70
2022/11/14 00:29:55;;;;;;;16.33;12.03;;;2.40;99.90;;;;;;5054387;28;20170;-70
2022/11/14 00:32:21;;;;;;;13.63;12.10;;;2.40;99.90;;;;;;5053507;28;20183;-70
2022/11/14 00:34:47;;;;;;;19.60;12.17;;;2.50;99.90;;;;;;5052190;28;20178;-70
2022/11/14 00:37:13;;;;;;;13.60;11.57;;;2.50;99.90;;;;;;5053388;28;20573;-71
2022/11/14 00:39:39;;;;;;;13.00;11.57;;;2.40;99.90;;;;;;5052031;28;20206;-70
2022/11/14 00:42:05;;;;;;;12.57;11.27;;;2.40;99.90;;;;;;5053611;28;20175;-70
2022/11/14 00:44:31;;;;;;;12.53;10.80;;;2.40;99.90;;;;;;5053287;28;20179;-71
2022/11/14 00:46:56;;;;;;;19.93;11.97;;;2.40;99.90;;;;;;5052647;28;20663;-69
2022/11/14 00:49:22;;;;;;;14.50;11.70;;;2.40;99.90;;;;;;5052423;28;20638;-69
2022/11/14 00:51:48;;;;;;;13.17;11.77;;;2.20;99.90;;;;;;5053825;28;20183;-70
2022/11/14 00:54:14;;;;;;;15.07;11.67;;;2.10;99.90;;;;;;5052120;28;20186;-70
2022/11/14 00:56:40;;;;;;;14.60;11.13;;;2.20;99.90;;;;;;5053590;28;20197;-70
2022/11/14 00:59:05;;;;;;;13.87;10.87;;;2.10;99.90;;;;;;5052069;28;20205;-70
2022/11/14 01:01:31;;;;;;;16.80;11.27;;;2.00;99.90;;;;;;5053182;28;20557;-70
2022/11/14 01:03:57;;;;;;;12.17;10.83;;;2.00;99.90;;;;;;5053025;28;20171;-70
2022/11/14 01:06:23;;;;;;;12.73;11.30;;;1.90;99.90;;;;;;5053268;28;20186;-70
2022/11/14 01:08:51;;;;;;;13.40;11.27;;;1.80;99.90;;;;;;5052951;28;20663;-70
2022/11/14 01:11:21;;;;;;;16.43;11.40;;;1.90;99.90;;;;;;5052993;28;20177;-70
2022/11/14 01:13:47;;;;;;;14.13;11.47;;;1.90;99.90;;;;;;5056741;28;20624;-70
2022/11/14 01:16:13;;;;;;;15.93;11.27;;;1.90;99.90;;;;;;5055441;28;20635;-70
2022/11/14 01:18:40;;;;;;;14.17;11.70;;;1.90;99.90;;;;;;5056550;28;20206;-70
2022/11/14 01:21:09;;;;;;;14.07;11.60;;;1.90;99.90;;;;;;5056795;28;20171;-70
2022/11/14 01:23:35;;;;;;;16.90;11.77;;;1.80;99.90;;;;;;5055603;28;20746;-70
2022/11/14 01:26:06;;;;;;;15.87;11.43;;;1.70;99.90;;;;;;5055388;28;20206;-70
2022/11/14 01:28:32;;;;;;;15.93;11.57;;;1.70;99.90;;;;;;5055568;28;20289;-70
2022/11/14 01:31:27;;;;;;;14.30;11.87;;;1.70;99.90;;;;;;5056641;28;20681;-70
2022/11/14 01:33:53;;;;;;;14.87;11.07;;;1.70;99.90;;;;;;5056177;28;20673;-70
2022/11/14 01:36:20;;;;;;;12.70;10.83;;;1.60;99.90;;;;;;5056856;28;20171;-70
2022/11/14 01:38:46;;;;;;;13.40;11.97;;;1.60;99.90;;;;;;5056511;28;20210;-70
2022/11/14 01:41:14;;;;;;;17.03;11.97;;;1.60;99.90;;;;;;5056516;28;20179;-70
2022/11/14 01:43:40;;;;;;;14.57;11.40;;;1.50;99.90;;;;;;5055203;28;20189;-70
2022/11/14 01:46:13;;;;;;;14.23;11.43;;;1.50;99.90;;;;;;5055101;28;20182;-70
2022/11/14 01:48:44;;;;;;;12.47;10.77;;;1.50;99.90;;;;;;5054952;28;20732;-70
2022/11/14 01:51:33;;;;;;;12.17;10.23;;;1.50;99.90;;;;;;5056904;28;20541;-70
2022/11/14 01:54:04;;;;;;;14.30;11.00;;;1.50;99.90;;;;;;5055036;28;20181;-70
2022/11/14 01:56:48;;;;;;;12.63;10.63;;;1.50;99.90;;;;;;5054970;28;20214;-70
2022/11/14 01:59:21;;;;;;;13.13;10.60;;;1.60;99.90;;;;;;5056132;28;20223;-70
2022/11/14 02:01:50;;;;;;;14.27;10.60;;;1.60;99.90;;;;;;5054720;28;20190;-70
2022/11/14 02:04:24;;;;;;;12.40;10.20;;;1.70;99.90;;;;;;5054614;28;20188;-70
2022/11/14 02:07:02;;;;;;;12.80;11.17;;;1.70;99.90;;;;;;5056458;28;20570;-70
2022/11/14 02:09:32;;;;;;;11.87;10.67;;;1.60;99.90;;;;;;5055923;28;20247;-70
2022/11/14 02:12:01;;;;;;;14.63;11.17;;;1.60;99.90;;;;;;5054707;28;20547;-70
2022/11/14 02:14:28;;;;;;;14.33;11.43;;;1.50;99.90;;;;;;5054503;28;20186;-70
2022/11/14 02:16:54;;;;;;;15.53;11.27;;;1.50;99.90;;;;;;5054540;28;20294;-70
2022/11/14 02:19:20;;;;;;;11.60;10.07;;;1.40;99.90;;;;;;5055638;28;20214;-70
2022/11/14 02:21:46;;;;;;;14.50;11.00;;;1.40;99.90;;;;;;5054434;28;20174;-70
2022/11/14 02:24:12;;;;;;;15.23;10.43;;;1.40;99.90;;;;;;5055080;28;20527;-70
2022/11/14 02:26:40;;;;;;;14.00;10.83;;;1.20;99.90;;;;;;5054195;28;20186;-70
2022/11/14 02:29:08;;;;;;;12.40;11.10;;;1.20;99.90;;;;;;5055994;28;20224;-70
2022/11/14 02:31:34;;;;;;;12.97;11.47;;;1.10;99.90;;;;;;5055448;28;20185;-70
2022/11/14 02:34:00;;;;;;;14.40;11.00;;;1.10;99.90;;;;;;5054098;28;20278;-70
2022/11/14 02:36:26;;;;;;;12.07;10.57;;;1.00;99.90;;;;;;5054021;28;20179;-70
2022/11/14 02:38:51;;;;;;;13.53;11.10;;;1.00;99.90;;;;;;5055106;28;20206;-71
2022/11/14 02:41:17;;;;;;;12.37;10.57;;;1.00;99.90;;;;;;5055380;28;20182;-70
2022/11/14 02:43:43;;;;;;;13.73;11.20;;;1.00;99.90;;;;;;5055220;28;20170;-71
2022/11/14 02:46:09;;;;;;;11.13;10.00;;;1.00;99.90;;;;;;5055303;28;20647;-70
2022/11/14 02:48:34;;;;;;;12.40;10.90;;;1.00;99.90;;;;;;5055115;28;20205;-70
2022/11/14 02:51:00;;;;;;;11.83;10.57;;;1.00;99.90;;;;;;5055434;28;20178;-70
2022/11/14 02:53:26;;;;;;;11.87;10.07;;;1.00;99.90;;;;;;5055128;28;20183;-70
2022/11/14 02:55:51;;;;;;;11.37;10.10;;;1.00;99.90;;;;;;5055000;28;20261;-70
2022/11/14 02:58:17;;;;;;;11.13;9.90;;;1.00;99.90;;;;;;5053714;28;20210;-70
2022/11/14 03:00:43;;;;;;;10.67;9.67;;;0.90;99.90;;;;;;5055013;28;20272;-70
2022/11/14 03:03:09;;;;;;;12.70;11.23;;;0.90;99.90;;;;;;5055053;28;20186;-70
2022/11/14 03:05:34;;;;;;;14.00;10.87;;;1.10;99.90;;;;;;5053713;28;20175;-70
2022/11/14 03:08:00;;;;;;;11.37;10.17;;;1.10;99.90;;;;;;5054814;28;20218;-70
2022/11/14 03:10:26;;;;;;;12.67;10.27;;;1.10;99.90;;;;;;5055112;28;20197;-70
2022/11/14 03:12:55;;;;;;;12.40;10.10;;;1.20;99.90;;;;;;5055220;28;20174;-70
2022/11/14 03:15:22;;;;;;;10.93;9.70;;;1.10;99.90;;;;;;5053316;28;20718;-70
2022/11/14 03:17:48;;;;;;;13.33;10.53;;;1.10;99.90;;;;;;5053098;28;20680;-70
2022/11/14 03:20:13;;;;;;;15.80;11.43;;;1.10;99.90;;;;;;5054726;28;20229;-71
2022/11/14 03:22:39;;;;;;;14.10;11.17;;;1.10;99.90;;;;;;5054709;28;20181;-70
2022/11/14 03:25:05;;;;;;;12.63;10.90;;;1.10;99.90;;;;;;5054720;28;20717;-70
2022/11/14 03:27:31;;;;;;;13.17;10.50;;;1.10;99.90;;;;;;5053051;28;20190;-70
2022/11/14 03:29:57;;;;;;;14.60;11.63;;;1.00;99.90;;;;;;5053004;28;20185;-71
2022/11/14 03:32:23;;;;;;;14.33;10.67;;;1.00;99.90;;;;;;5054255;28;20182;-70
2022/11/14 03:34:48;;;;;;;12.53;10.97;;;0.90;99.90;;;;;;5054225;28;20171;-70
2022/11/14 03:37:14;;;;;;;15.07;11.80;;;0.90;99.90;;;;;;5054207;28;20198;-70
2022/11/14 03:39:40;;;;;;;14.00;10.40;;;1.00;99.90;;;;;;5054156;28;20210;-70
2022/11/14 03:42:05;;;;;;;13.23;10.47;;;1.00;99.90;;;;;;5054306;28;20628;-70
2022/11/14 03:44:31;;;;;;;13.90;11.20;;;1.00;99.90;;;;;;5054023;28;20170;-70
2022/11/14 03:46:57;;;;;;;13.50;11.37;;;1.00;99.90;;;;;;5053786;28;20198;-70
2022/11/14 03:49:23;;;;;;;11.80;10.60;;;1.00;99.90;;;;;;5052633;28;20182;-70
2022/11/14 03:51:49;;;;;;;15.20;10.73;;;1.00;99.90;;;;;;5052637;28;20175;-70
2022/11/14 03:54:15;;;;;;;13.90;11.40;;;1.00;99.90;;;;;;5052886;28;20186;-70
2022/11/14 03:56:41;;;;;;;13.20;10.50;;;0.90;99.90;;;;;;5053858;28;20183;-70
2022/11/14 03:59:06;;;;;;;12.17;10.93;;;0.90;99.90;;;;;;5053967;28;20194;-70
2022/11/14 04:01:32;;;;;;;12.80;10.77;;;0.90;99.90;;;;;;5053597;28;20186;-70
2022/11/14 04:03:58;;;;;;;14.87;11.10;;;0.90;99.90;;;;;;5052443;28;20174;-70
2022/11/14 04:06:23;;;;;;;14.43;11.03;;;0.90;99.90;;;;;;5053675;28;20658;-70
2022/11/14 04:08:50;;;;;;;14.43;10.73;;;0.80;99.90;;;;;;5053668;28;20209;-70
2022/11/14 04:11:16;;;;;;;11.47;10.13;;;0.80;99.90;;;;;;5053588;28;20173;-70
2022/11/14 04:13:42;;;;;;;16.37;10.87;;;0.80;99.90;;;;;;5052381;28;20264;-70
2022/11/14 04:16:08;;;;;;;15.67;10.90;;;0.70;99.90;;;;;;5052271;28;20183;-70
2022/11/14 04:18:34;;;;;;;13.63;10.93;;;0.60;99.90;;;;;;5053697;28;20204;-70
2022/11/14 04:20:59;;;;;;;13.47;10.67;;;0.60;99.90;;;;;;5054182;28;20171;-70
2022/11/14 04:23:25;;;;;;;21.40;13.97;;;0.60;99.90;;;;;;5053664;28;20250;-70
2022/11/14 04:25:51;;;;;;;15.20;12.23;;;0.50;99.90;;;;;;5053500;28;20177;-70
2022/11/14 04:28:17;;;;;;;12.90;11.57;;;0.50;99.90;;;;;;5052380;28;20194;-67
2022/11/14 04:30:44;;;;;;;13.43;12.03;;;0.50;99.90;;;;;;5053264;28;20508;-67
2022/11/14 04:33:10;;;;;;;13.73;10.93;;;0.60;99.90;;;;;;5051962;28;20185;-67
2022/11/14 04:35:35;;;;;;;13.97;10.67;;;0.60;99.90;;;;;;5053682;28;20600;-67
2022/11/14 04:38:02;;;;;;;13.80;10.03;;;0.60;99.90;;;;;;5053230;28;20285;-67
2022/11/14 04:40:27;;;;;;;12.97;11.17;;;0.60;99.90;;;;;;5053296;28;20243;-67
2022/11/14 04:42:53;;;;;;;14.70;10.80;;;0.70;99.90;;;;;;5053403;28;20538;-67
2022/11/14 04:45:19;;;;;;;14.53;10.47;;;0.70;99.90;;;;;;5053279;28;20178;-67
2022/11/14 04:47:45;;;;;;;12.40;9.87;;;0.70;99.90;;;;;;5054874;28;20691;-67
2022/11/14 04:50:11;;;;;;;12.10;10.77;;;0.70;99.90;;;;;;5058007;28;20184;-66
2022/11/14 04:52:36;;;;;;;16.37;10.90;;;0.70;99.90;;;;;;5056146;28;20178;-66
2022/11/14 04:55:02;;;;;;;14.10;10.60;;;0.80;99.90;;;;;;5055837;28;20659;-66
2022/11/14 04:57:28;;;;;;;11.63;10.03;;;0.70;99.90;;;;;;5057155;28;20755;-66
2022/11/14 04:59:54;;;;;;;12.50;11.03;;;0.70;99.90;;;;;;5055848;28;20376;-66
2022/11/14 05:02:20;;;;;;;12.30;10.20;;;0.70;99.90;;;;;;5055647;28;20190;-66
2022/11/14 05:04:47;;;;;;;13.50;11.33;;;0.70;99.90;;;;;;5056858;28;20174;-66
2022/11/14 05:07:13;;;;;;;11.93;10.73;;;0.60;99.90;;;;;;5056771;28;20201;-66
2022/11/14 05:09:39;;;;;;;12.67;10.90;;;0.60;99.90;;;;;;5055610;28;20187;-66
2022/11/14 05:12:05;;;;;;;12.20;10.57;;;0.50;99.90;;;;;;5055473;28;20201;-66
2022/11/14 05:14:31;;;;;;;16.33;11.17;;;0.50;99.90;;;;;;5056716;28;20200;-66
2022/11/14 05:16:57;;;;;;;15.20;11.93;;;0.50;99.90;;;;;;5056773;28;20652;-66
2022/11/14 05:19:23;;;;;;;13.30;11.90;;;0.50;99.90;;;;;;5056627;28;20285;-66
2022/11/14 05:21:49;;;;;;;12.80;11.10;;;0.50;99.90;;;;;;5056723;28;20304;-66
2022/11/14 05:24:15;;;;;;;14.53;11.27;;;0.50;99.90;;;;;;5056552;28;20261;-66
2022/11/14 05:26:40;;;;;;;13.03;10.70;;;0.50;99.90;;;;;;5056490;28;20181;-66
2022/11/14 05:29:06;;;;;;;14.90;10.63;;;0.50;99.90;;;;;;5055451;28;20185;-66
2022/11/14 05:31:32;;;;;;;12.93;10.80;;;0.40;99.90;;;;;;5056859;28;20205;-66
2022/11/14 05:33:58;;;;;;;16.07;11.27;;;0.50;99.90;;;;;;5056496;28;20554;-66
2022/11/14 05:36:23;;;;;;;12.17;10.87;;;0.50;99.90;;;;;;5056695;28;20213;-66
2022/11/14 05:38:49;;;;;;;16.17;10.53;;;0.50;99.90;;;;;;5056491;28;20213;-66
2022/11/14 05:41:18;;;;;;;12.43;11.13;;;0.60;99.90;;;;;;5056855;28;20650;-66
2022/11/14 05:43:44;;;;;;;13.30;11.10;;;0.60;99.90;;;;;;5056065;28;20194;-67
2022/11/14 05:46:12;;;;;;;14.40;11.47;;;0.60;99.90;;;;;;5056052;28;20257;-66
2022/11/14 05:48:38;;;;;;;14.50;11.87;;;0.60;99.90;;;;;;5055796;28;20213;-66
2022/11/14 05:51:06;;;;;;;14.30;11.23;;;0.60;99.90;;;;;;5056182;28;20181;-66
2022/11/14 05:53:33;;;;;;;12.70;11.37;;;0.60;99.90;;;;;;5054633;28;20639;-66
2022/11/14 05:56:08;;;;;;;12.23;10.73;;;0.60;99.90;;;;;;5056112;28;20174;-66
2022/11/14 05:58:34;;;;;;;13.53;11.43;;;0.60;99.90;;;;;;5055376;28;20202;-66
2022/11/14 06:01:09;;;;;;;11.33;10.20;;;0.50;99.90;;;;;;5055885;28;20190;-66
2022/11/14 06:03:41;;;;;;;17.80;11.40;;;0.50;99.90;;;;;;5054283;28;20665;-66
2022/11/14 06:06:09;;;;;;;15.60;11.97;;;0.50;99.90;;;;;;5054470;28;20177;-66
2022/11/14 06:08:35;;;;;;;13.27;11.40;;;0.50;99.90;;;;;;5055510;28;20308;-66
2022/11/14 06:11:11;;;;;;;12.60;10.30;;;0.50;99.90;;;;;;5055501;28;20182;-66
2022/11/14 06:13:37;;;;;;;14.27;11.60;;;0.50;99.90;;;;;;5055852;28;20178;-66
2022/11/14 06:16:08;;;;;;;13.10;10.47;;;0.50;99.90;;;;;;5054229;28;20174;-66
2022/11/14 06:18:35;;;;;;;14.20;10.13;;;0.40;99.90;;;;;;5055578;28;20289;-66
2022/11/14 06:21:10;;;;;;;13.53;10.77;;;0.40;99.90;;;;;;5054151;28;20567;-66
2022/11/14 06:23:35;;;;;;;12.50;10.77;;;0.30;99.90;;;;;;5055581;28;20150;-66
2022/11/14 06:26:07;;;;;;;12.73;10.90;;;0.30;99.90;;;;;;5054028;28;20549;-66
2022/11/14 06:28:33;;;;;;;14.77;11.17;;;0.30;99.90;;;;;;5055336;28;20194;-66
2022/11/14 06:31:00;;;;;;;10.80;9.70;;;0.30;99.90;;;;;;5055637;28;20213;-69
2022/11/14 06:33:28;;;;;;;12.10;10.67;;;0.30;99.90;;;;;;5055373;28;20171;-69
2022/11/14 06:36:02;;;;;;;11.93;10.13;;;0.30;99.90;;;;;;5054218;28;20651;-69
2022/11/14 06:38:31;;;;;;;12.13;10.60;;;0.30;99.90;;;;;;5055208;28;20622;-69
2022/11/14 06:41:09;;;;;;;13.37;9.83;;;0.30;99.90;;;;;;5055502;28;20175;-69
2022/11/14 06:43:43;;;;;;;11.60;10.20;;;0.30;99.90;;;;;;5055222;28;20171;-69
2022/11/14 06:46:11;;;;;;;12.33;11.07;;;0.30;99.90;;;;;;5053886;28;20232;-69
2022/11/14 06:48:37;;;;;;;16.10;13.10;;;0.30;99.90;;;;;;5053647;28;20195;-69
2022/11/14 06:51:04;;;;;;;21.97;13.77;;;0.30;99.90;;;;;;5053698;28;20651;-69
2022/11/14 06:53:32;;;;;;;20.63;14.33;;;0.30;99.90;;;;;;5054865;28;20197;-69
2022/11/14 06:56:07;;;;;;;16.57;13.27;;;0.30;99.90;;;;;;5054786;28;20232;-69
2022/11/14 06:58:35;;;;;;;16.30;13.87;;;0.30;99.90;;;;;;5054973;28;20190;-69
2022/11/14 07:01:09;;;;;;;17.67;12.53;;;0.40;99.90;;;;;;5053479;28;20593;-69
2022/11/14 07:03:36;;;;;;;16.13;12.33;;;0.40;99.90;;;;;;5054580;28;20162;-69
2022/11/14 07:06:04;;;;;;;14.93;12.77;;;0.40;99.90;;;;;;5054632;28;20178;-71
2022/11/14 07:08:31;;;;;;;12.97;11.73;;;0.50;99.90;;;;;;5053311;28;20293;-72
2022/11/14 07:11:04;;;;;;;14.17;12.40;;;0.50;99.90;;;;;;5052585;28;20170;-71
2022/11/14 07:13:31;;;;;;;14.33;12.37;;;0.50;99.90;;;;;;5053569;28;20194;-72
2022/11/14 07:15:57;;;;;;;13.33;11.93;;;0.50;99.90;;;;;;5053548;28;20178;-72
2022/11/14 07:18:23;;;;;;;14.53;12.50;;;0.50;99.90;;;;;;5054610;28;20202;-71
2022/11/14 07:20:49;;;;;;;15.30;11.57;;;0.50;99.90;;;;;;5053413;28;20594;-72
2022/11/14 07:23:14;;;;;;;14.53;12.10;;;0.50;99.90;;;;;;5054511;28;20177;-72
2022/11/14 07:25:40;;;;;;;15.87;11.57;;;0.50;99.90;;;;;;5054592;28;20520;-72
2022/11/14 07:28:06;;;;;;;14.00;11.67;;;0.50;99.90;;;;;;5054299;28;20213;-72
2022/11/14 07:30:33;;;;;;;15.13;11.57;;;0.50;99.90;;;;;;5052942;28;20170;-72
2022/11/14 07:32:59;;;;;;;13.77;12.23;;;0.50;99.90;;;;;;5052781;28;20193;-72
2022/11/14 07:35:25;;;;;;;13.43;12.10;;;0.50;99.90;;;;;;5052803;28;20178;-70
2022/11/14 07:37:51;;;;;;;15.77;11.97;;;0.50;99.90;;;;;;5054033;28;20198;-69
2022/11/14 07:40:18;;;;;;;17.23;11.60;;;0.60;99.90;;;;;;5052561;28;20324;-70
2022/11/14 07:42:44;;;;;;;14.77;12.40;;;0.60;99.90;;;;;;5052553;28;20171;-71
2022/11/14 07:45:10;;;;;;;16.70;12.03;;;0.60;99.90;;;;;;5054149;28;20316;-70
2022/11/14 07:47:36;;;;;;;16.63;12.93;;;0.70;99.90;;;;;;5053848;28;20685;-70
2022/11/14 07:50:02;;;;;;;15.17;11.50;;;0.70;99.90;;;;;;5052620;28;20174;-70
2022/11/14 07:52:30;;;;;;;16.37;12.30;;;0.80;99.90;;;;;;5054086;28;20170;-70
2022/11/14 07:54:56;;;;;;;14.57;12.70;;;0.90;99.90;;;;;;5052408;28;20182;-70
2022/11/14 07:57:21;;;;;;;14.50;11.80;;;0.90;99.90;;;;;;5052347;28;20289;-70
2022/11/14 07:59:47;;;;;;;17.33;11.90;;;1.00;99.90;;;;;;5053677;28;20732;-70
2022/11/14 08:02:13;;;;;;;14.87;12.17;;;1.10;99.90;;;;;;5052269;28;20244;-70
2022/11/14 08:04:41;;;;;;;15.17;12.30;;;1.10;99.90;;;;;;5053589;28;20178;-70
2022/11/14 08:07:07;;;;;;;14.67;11.43;;;1.10;99.90;;;;;;5052198;28;20233;-71
2022/11/14 08:09:33;;;;;;;13.40;12.00;;;1.20;99.90;;;;;;5053487;28;20213;-70
2022/11/14 08:11:59;;;;;;;14.90;12.73;;;1.20;99.90;;;;;;5052159;28;20663;-70
2022/11/14 08:14:25;;;;;;;15.03;12.90;;;1.30;99.90;;;;;;5052141;28;20218;-70
2022/11/14 08:16:51;;;;;;;14.67;12.93;;;1.40;99.90;;;;;;5053408;28;20224;-70
2022/11/14 08:19:17;;;;;;;15.77;12.80;;;1.40;99.90;;;;;;5051922;28;20202;-70
2022/11/14 08:21:43;;;;;;;17.30;12.83;;;1.50;99.90;;;;;;5053654;28;20175;-70
2022/11/14 08:24:09;;;;;;;17.27;13.33;;;1.50;99.90;;;;;;5052018;28;20181;-70
2022/11/14 08:26:35;;;;;;;17.63;12.40;;;1.60;99.90;;;;;;5053595;28;20175;-69
2022/11/14 08:29:00;;;;;;;18.57;12.83;;;1.70;99.90;;;;;;5052096;28;20182;-70
2022/11/14 08:31:26;;;;;;;21.27;13.43;;;1.70;99.90;;;;;;5051974;28;20643;-70
2022/11/14 08:33:52;;;;;;;15.73;12.73;;;1.80;99.90;;;;;;5051817;28;20182;-70
2022/11/14 08:36:18;;;;;;;17.37;12.90;;;1.90;99.90;;;;;;5053110;28;20258;-70
2022/11/14 08:38:44;;;;;;;20.67;13.60;;;2.00;99.90;;;;;;5052934;28;20206;-70
2022/11/14 08:41:10;;;;;;;15.53;13.10;;;2.10;99.90;;;;;;5053081;28;20170;-70
2022/11/14 08:43:36;;;;;;;19.60;14.17;;;2.20;99.90;;;;;;5053205;28;20216;-70
2022/11/14 08:46:05;;;;;;;16.13;13.40;;;2.20;99.90;;;;;;5052152;28;20175;-70
2022/11/14 08:48:31;;;;;;;23.20;14.17;;;2.30;99.90;;;;;;5051900;28;20213;-70
2022/11/14 08:51:01;;;;;;;17.07;13.73;;;2.40;99.90;;;;;;5053046;28;20166;-70
2022/11/14 08:53:27;;;;;;;15.50;13.87;;;2.40;99.90;;;;;;5051897;28;20174;-70
2022/11/14 08:55:52;;;;;;;16.93;13.37;;;2.50;99.90;;;;;;5053038;28;20197;-70
2022/11/14 08:58:18;;;;;;;15.53;13.80;;;2.60;99.90;;;;;;5051703;28;20289;-70
2022/11/14 09:00:44;;;;;;;15.80;14.10;;;2.70;99.90;;;;;;5052889;28;20226;-70
2022/11/14 09:03:14;;;;;;;19.43;14.43;;;2.80;99.90;;;;;;5051562;28;20596;-70
2022/11/14 09:05:41;;;;;;;19.43;14.03;;;3.00;99.90;;;;;;5051645;28;20185;-70
2022/11/14 09:08:07;;;;;;;16.87;13.10;;;3.10;99.90;;;;;;5051746;28;20618;-70
2022/11/14 09:10:33;;;;;;;18.07;15.07;;;3.20;99.90;;;;;;5053408;28;20297;-70
2022/11/14 09:13:00;;;;;;;17.40;14.53;;;3.40;99.90;;;;;;5052832;28;20177;-70
2022/11/14 09:15:27;;;;;;;19.90;14.63;;;3.50;99.90;;;;;;5053592;28;20201;-70
2022/11/14 09:17:54;;;;;;;17.63;13.70;;;3.70;99.90;;;;;;5052748;28;20229;-70
2022/11/14 09:20:24;;;;;;;16.17;14.47;;;3.90;99.90;;;;;;5051752;28;20208;-69
2022/11/14 09:22:52;;;;;;;16.63;14.17;;;4.10;99.90;;;;;;5051500;28;20523;-69
2022/11/14 09:25:19;;;;;;;19.67;15.00;;;4.30;99.90;;;;;;5051457;28;20167;-69
2022/11/14 09:27:44;;;;;;;18.90;14.93;;;4.50;99.90;;;;;;5051292;28;20199;-69
2022/11/14 09:30:11;;;;;;;21.77;15.67;;;4.60;99.90;;;;;;5051361;28;20221;-69
2022/11/14 09:32:37;;;;;;;25.90;17.63;;;4.80;99.90;;;;;;5052531;28;20639;-69
2022/11/14 09:35:03;;;;;;;24.10;17.20;;;5.10;99.90;;;;;;5056046;28;20175;-69
2022/11/14 09:37:29;;;;;;;25.30;17.73;;;5.40;99.90;;;;;;5056381;28;20248;-69
2022/11/14 09:39:55;;;;;;;23.20;18.23;;;5.60;99.90;;;;;;5056073;28;20206;-69
2022/11/14 09:42:29;;;;;;;25.90;18.03;;;5.90;99.90;;;;;;5056324;28;20198;-69
2022/11/14 09:44:58;;;;;;;26.93;18.33;;;6.20;99.90;;;;;;5056091;28;20238;-69
2022/11/14 09:47:49;;;;;;;26.53;17.90;;;6.50;99.90;;;;;;5055988;28;20186;-69
2022/11/14 09:50:21;;;;;;;26.80;19.30;;;6.70;99.90;;;;;;5056212;28;20197;-69
2022/11/14 09:53:30;;;;;;;24.47;16.97;;;6.80;99.90;;;;;;5056248;28;20163;-69
2022/11/14 09:55:57;;;;;;;26.80;18.10;;;6.90;99.90;;;;;;5054633;28;20671;-69
2022/11/14 09:58:23;;;;;;;26.33;17.67;;;7.00;99.90;;;;;;5055685;28;20277;-69
2022/11/14 10:01:11;;;;;;;24.43;17.77;;;7.10;99.90;;;;;;5055897;28;20616;-69
2022/11/14 10:03:59;;;;;;;26.60;17.97;;;7.20;99.90;;;;;;5055474;28;20543;-69
2022/11/14 10:06:36;;;;;;;23.87;17.33;;;7.20;99.90;;;;;;5054552;28;20262;-69
2022/11/14 10:09:13;;;;;;;23.33;17.20;;;7.30;99.90;;;;;;5055762;28;20205;-69
2022/11/14 10:12:00;;;;;;;23.33;15.83;;;7.30;99.90;;;;;;5055721;28;20241;-69
2022/11/14 10:14:48;;;;;;;22.33;17.33;;;7.30;99.90;;;;;;5055901;28;20608;-69
2022/11/14 10:17:43;;;;;;;23.53;17.13;;;7.40;99.90;;;;;;5055963;28;20191;-69
2022/11/14 10:20:39;;;;;;;24.47;17.30;;;7.30;99.90;;;;;;5055314;28;20190;-69
2022/11/14 10:23:14;;;;;;;27.17;16.90;;;7.30;99.90;;;;;;5056012;28;20173;-69
2022/11/14 10:25:49;;;;;;;25.77;18.40;;;7.40;99.90;;;;;;5055538;28;20166;-69
2022/11/14 10:28:36;;;;;;;23.77;17.53;;;7.40;99.90;;;;;;5055468;28;20659;-69
2022/11/14 10:31:26;;;;;;;24.57;17.03;;;7.40;99.90;;;;;;5055650;28;20162;-69
2022/11/14 10:33:54;;;;;;;23.40;15.97;;;7.60;99.90;;;;;;5055279;28;20242;-69
2022/11/14 10:36:36;;;;;;;23.20;16.00;;;7.60;99.90;;;;;;5055139;28;20179;-69
2022/11/14 10:39:16;;;;;;;25.97;17.03;;;7.60;99.90;;;;;;5055252;28;20202;-69
2022/11/14 10:41:44;;;;;;;20.97;16.40;;;7.60;99.90;;;;;;5053908;28;20623;-68
2022/11/14 10:44:17;;;;;;;22.20;16.37;;;7.70;99.90;;;;;;5054718;28;20166;-69
2022/11/14 10:46:54;;;;;;;25.70;17.43;;;7.70;99.90;;;;;;5053255;28;20162;-68
2022/11/14 10:49:22;;;;;;;22.37;16.00;;;7.70;99.90;;;;;;5054944;28;20227;-69
2022/11/14 10:52:02;;;;;;;18.70;14.33;;;7.70;99.90;;;;;;5053651;28;20647;-69
2022/11/14 10:54:43;;;;;;;21.50;16.17;;;7.70;99.90;;;;;;5053693;28;20220;-69
2022/11/14 10:57:17;;;;;;;22.93;15.13;;;7.80;99.90;;;;;;5054904;28;20194;-69
2022/11/14 10:59:43;;;;;;;20.17;15.37;;;7.90;99.90;;;;;;5053445;28;20728;-69
2022/11/14 11:02:09;;;;;;;22.00;16.13;;;8.00;99.90;;;;;;5054726;28;20206;-69
2022/11/14 11:04:37;;;;;;;22.10;14.67;;;8.10;99.90;;;;;;5054836;28;20254;-69
2022/11/14 11:07:05;;;;;;;19.17;14.23;;;8.20;99.90;;;;;;5054644;28;20194;-69
2022/11/14 11:12:39;;;;;;;22.57;15.50;;;8.40;99.90;;;;;;5054820;28;20166;-69
2022/11/14 11:15:27;;;;;;;20.37;13.90;;;8.70;99.90;;;;;;5054772;28;20195;-69
2022/11/14 11:17:57;;;;;;;19.23;14.20;;;9.10;99.90;;;;;;5054354;28;20277;-69
2022/11/14 11:20:27;;;;;;;19.47;14.80;;;9.50;99.90;;;;;;5054346;28;20281;-69
2022/11/14 11:23:05;;;;;;;20.50;15.03;;;9.90;99.90;;;;;;5054580;28;20167;-69
2022/11/14 11:25:32;;;;;;;18.40;14.13;;;10.20;99.90;;;;;;5054220;28;20175;-69
2022/11/14 11:28:19;;;;;;;19.70;13.73;;;10.30;99.90;;;;;;5052935;28;20198;-69
2022/11/14 11:31:06;;;;;;;16.73;13.20;;;10.60;99.90;;;;;;5054943;28;20154;-70
2022/11/14 11:33:34;;;;;;;18.90;12.50;;;10.80;99.90;;;;;;5054628;28;20162;-69
2022/11/14 11:36:10;;;;;;;17.67;12.87;;;11.00;99.90;;;;;;5054104;28;20178;-69
2022/11/14 11:38:36;;;;;;;16.27;12.23;;;10.90;99.90;;;;;;5054100;28;20702;-69
2022/11/14 11:41:21;;;;;;;16.80;12.20;;;10.90;99.90;;;;;;5054108;28;20171;-70
2022/11/14 11:43:54;;;;;;;19.10;12.97;;;11.00;99.90;;;;;;5054225;28;20518;-69
2022/11/14 11:46:52;;;;;;;17.87;12.20;;;11.00;99.90;;;;;;5053906;28;20206;-69
2022/11/14 11:49:45;;;;;;;17.20;12.87;;;11.00;99.90;;;;;;5052527;28;20655;-69
2022/11/14 11:52:25;;;;;;;16.53;12.27;;;11.00;99.90;;;;;;5053907;28;20189;-69
2022/11/14 11:55:12;;;;;;;15.83;11.60;;;11.10;99.90;;;;;;5053867;28;20166;-69
2022/11/14 11:57:56;;;;;;;16.07;12.27;;;11.10;99.90;;;;;;5052451;28;20537;-70
2022/11/14 12:00:22;;;;;;;17.90;12.93;;;11.10;99.90;;;;;;5053970;28;20237;-69
2022/11/14 12:02:51;;;;;;;15.57;12.20;;;11.10;99.90;;;;;;5053598;28;20214;-69
2022/11/14 12:05:36;;;;;;;17.33;11.67;;;11.10;99.90;;;;;;5053623;28;20625;-69
2022/11/14 12:08:06;;;;;;;17.80;13.17;;;11.10;99.90;;;;;;5053564;28;20202;-69
2022/11/14 12:10:42;;;;;;;15.70;11.40;;;11.10;99.90;;;;;;5053839;28;20228;-69
2022/11/14 12:13:38;;;;;;;16.50;11.17;;;11.00;99.90;;;;;;5052291;28;20174;-69
2022/11/14 12:16:19;;;;;;;16.40;12.23;;;11.10;99.90;;;;;;5054099;28;20162;-69
2022/11/14 12:19:06;;;;;;;14.50;11.13;;;11.10;99.90;;;;;;5053165;28;20273;-69
2022/11/14 12:21:59;;;;;;;16.40;11.52;;;11.00;99.90;;;;;;5054085;28;20166;-69
2022/11/14 12:24:57;;;;;;;12.57;10.13;;;10.80;99.90;;;;;;5053703;28;20246;-69
2022/11/14 12:27:41;;;;;;;14.40;10.70;;;10.80;99.90;;;;;;5053884;28;20205;-69
2022/11/14 12:30:23;;;;;;;14.63;10.57;;;11.00;99.90;;;;;;5053342;28;20668;-69
2022/11/14 12:32:57;;;;;;;15.00;9.98;;;11.20;99.90;;;;;;5053616;28;20186;-69
2022/11/14 12:35:32;;;;;;;13.40;10.27;;;11.50;99.90;;;;;;5051921;28;20176;-70
2022/11/14 12:38:00;;;;;;;12.20;9.55;;;11.70;99.90;;;;;;5053404;28;20315;-70
2022/11/14 12:40:30;;;;;;;13.70;10.18;;;11.80;99.90;;;;;;5053124;28;20202;-70
2022/11/14 12:42:58;;;;;;;11.73;8.95;;;11.80;99.90;;;;;;5052304;28;20219;-70
2022/11/14 12:45:39;;;;;;;14.43;9.70;;;11.60;99.90;;;;;;5051929;28;20706;-70
2022/11/14 12:48:35;;;;;;;11.40;9.02;;;11.30;99.90;;;;;;5051866;28;20197;-69
2022/11/14 12:51:04;;;;;;;12.65;9.98;;;10.90;99.90;;;;;;5052696;28;20209;-69